sensor_id;sensor_type;location;lat;lon;timestamp;pressure;altitude;pressure_sealevel;temperature;humidity
35676;BME280;21790;42.668;23.298;2023-01-29T00:01:54;94781.53;;;8.17;45.71
35676;BME280;21790;42.668;23.298;2023-01-29T00:04:20;94781.88;;;8.07;45.60
35676;BME280;21790;42.668;23.298;2023-01-29T00:06:45;94782.97;;;8.22;45.46
35676;BME280;21790;42.668;23.298;2023-01-29T00:09:11;94786.16;;;8.20;45.34
35676;BME280;21790;42.668;23.298;2023-01-29T00:11:38;94785.03;;;8.30;44.99
35676;BME280;21790;42.668;23.298;2023-01-29T00:14:03;94792.75;;;8.23;45.15
35676;BME280;21790;42.668;23.298;2023-01-29T00:16:29;94792.53;;;8.30;45.17
35676;BME280;21790;42.668;23.298;2023-01-29T00:18:54;94796.50;;;8.29;45.14
35676;BME280;21790;42.668;23.298;2023-01-29T00:21:21;94797.03;;;8.24;45.14
35676;BME280;21790;42.668;23.298;2023-01-29T00:23:47;94810.59;;;8.31;45.30
35676;BME280;21790;42.668;23.298;2023-01-29T00:26:13;94799.16;;;8.32;44.86
35676;BME280;21790;42.668;23.298;2023-01-29T00:28:39;94807.84;;;8.31;45.26
35676;BME280;21790;42.668;23.298;2023-01-29T00:31:09;94802.00;;;8.29;45.19
35676;BME280;21790;42.668;23.298;2023-01-29T00:33:35;94807.66;;;8.13;45.46
35676;BME280;21790;42.668;23.298;2023-01-29T00:36:05;94800.03;;;8.04;45.79
35676;BME280;21790;42.668;23.298;2023-01-29T00:38:33;94802.06;;;7.78;46.61
35676;BME280;21790;42.668;23.298;2023-01-29T00:41:13;94810.28;;;8.04;46.34
35676;BME280;21790;42.668;23.298;2023-01-29T00:43:58;94803.59;;;7.67;46.60
35676;BME280;21790;42.668;23.298;2023-01-29T00:46:42;94806.00;;;7.77;46.53
35676;BME280;21790;42.668;23.298;2023-01-29T00:49:08;94804.78;;;7.66;46.92
35676;BME280;21790;42.668;23.298;2023-01-29T00:51:34;94804.25;;;7.71;46.95
35676;BME280;21790;42.668;23.298;2023-01-29T00:54:00;94806.22;;;7.70;46.63
35676;BME280;21790;42.668;23.298;2023-01-29T00:56:28;94809.53;;;7.65;47.00
35676;BME280;21790;42.668;23.298;2023-01-29T00:58:55;94810.63;;;7.68;47.03
35676;BME280;21790;42.668;23.298;2023-01-29T01:01:22;94797.44;;;7.63;47.38
35676;BME280;21790;42.668;23.298;2023-01-29T01:04:07;94804.38;;;7.67;46.85
35676;BME280;21790;42.668;23.298;2023-01-29T01:06:33;94802.59;;;7.61;47.18
35676;BME280;21790;42.668;23.298;2023-01-29T01:09:00;94796.66;;;7.62;47.15
35676;BME280;21790;42.668;23.298;2023-01-29T01:11:49;94803.13;;;7.81;47.26
35676;BME280;21790;42.668;23.298;2023-01-29T01:14:15;94801.06;;;7.60;47.61
35676;BME280;21790;42.668;23.298;2023-01-29T01:16:41;94805.56;;;7.66;47.36
35676;BME280;21790;42.668;23.298;2023-01-29T01:19:06;94787.63;;;7.62;47.66
35676;BME280;21790;42.668;23.298;2023-01-29T01:21:32;94798.31;;;7.72;47.18
35676;BME280;21790;42.668;23.298;2023-01-29T01:23:57;94804.91;;;7.87;46.87
35676;BME280;21790;42.668;23.298;2023-01-29T01:26:26;94793.25;;;7.96;46.68
35676;BME280;21790;42.668;23.298;2023-01-29T01:28:51;94806.44;;;7.88;46.93
35676;BME280;21790;42.668;23.298;2023-01-29T01:31:17;94796.22;;;7.76;46.87
35676;BME280;21790;42.668;23.298;2023-01-29T01:33:43;94802.72;;;7.82;47.04
35676;BME280;21790;42.668;23.298;2023-01-29T01:36:09;94796.97;;;7.89;46.72
35676;BME280;21790;42.668;23.298;2023-01-29T01:38:37;94801.03;;;7.97;46.90
35676;BME280;21790;42.668;23.298;2023-01-29T01:41:11;94803.03;;;7.84;46.77
35676;BME280;21790;42.668;23.298;2023-01-29T01:43:54;94799.47;;;8.09;46.50
35676;BME280;21790;42.668;23.298;2023-01-29T01:46:22;94809.09;;;7.79;47.01
35676;BME280;21790;42.668;23.298;2023-01-29T01:49:13;94810.41;;;7.87;47.04
35676;BME280;21790;42.668;23.298;2023-01-29T01:51:52;94811.81;;;7.92;46.95
35676;BME280;21790;42.668;23.298;2023-01-29T01:57:23;94811.50;;;7.77;47.15
35676;BME280;21790;42.668;23.298;2023-01-29T01:59:59;94815.69;;;7.82;47.12
35676;BME280;21790;42.668;23.298;2023-01-29T02:02:28;94807.88;;;7.55;47.74
35676;BME280;21790;42.668;23.298;2023-01-29T02:05:13;94812.06;;;7.72;47.69
35676;BME280;21790;42.668;23.298;2023-01-29T02:07:57;94813.94;;;7.63;47.96
35676;BME280;21790;42.668;23.298;2023-01-29T02:10:44;94820.75;;;7.71;47.70
35676;BME280;21790;42.668;23.298;2023-01-29T02:13:11;94818.31;;;7.60;48.36
35676;BME280;21790;42.668;23.298;2023-01-29T02:15:37;94802.25;;;7.46;48.37
35676;BME280;21790;42.668;23.298;2023-01-29T02:18:07;94812.28;;;7.65;48.42
35676;BME280;21790;42.668;23.298;2023-01-29T02:20:33;94815.47;;;7.64;48.23
35676;BME280;21790;42.668;23.298;2023-01-29T02:26:22;94826.03;;;7.78;48.17
35676;BME280;21790;42.668;23.298;2023-01-29T02:29:09;94828.00;;;7.77;48.46
35676;BME280;21790;42.668;23.298;2023-01-29T02:34:44;94830.13;;;7.73;48.68
35676;BME280;21790;42.668;23.298;2023-01-29T02:37:44;94832.72;;;7.64;48.60
35676;BME280;21790;42.668;23.298;2023-01-29T02:40:28;94836.25;;;7.65;49.07
35676;BME280;21790;42.668;23.298;2023-01-29T02:46:33;94840.44;;;7.56;49.43
35676;BME280;21790;42.668;23.298;2023-01-29T02:54:22;94833.50;;;7.52;49.80
35676;BME280;21790;42.668;23.298;2023-01-29T02:57:01;94838.78;;;7.59;49.56
35676;BME280;21790;42.668;23.298;2023-01-29T02:59:41;94843.72;;;7.51;49.66
35676;BME280;21790;42.668;23.298;2023-01-29T03:02:17;94841.16;;;7.32;50.50
35676;BME280;21790;42.668;23.298;2023-01-29T03:04:51;94840.06;;;7.42;50.01
35676;BME280;21790;42.668;23.298;2023-01-29T03:07:27;94835.00;;;7.28;50.45
35676;BME280;21790;42.668;23.298;2023-01-29T03:10:45;94838.25;;;7.51;50.02
35676;BME280;21790;42.668;23.298;2023-01-29T03:13:15;94841.94;;;7.32;50.31
35676;BME280;21790;42.668;23.298;2023-01-29T03:15:48;94842.16;;;7.38;50.31
35676;BME280;21790;42.668;23.298;2023-01-29T03:18:23;94842.03;;;7.29;50.03
35676;BME280;21790;42.668;23.298;2023-01-29T03:20:55;94842.28;;;7.34;50.17
35676;BME280;21790;42.668;23.298;2023-01-29T03:23:27;94847.78;;;7.34;49.85
35676;BME280;21790;42.668;23.298;2023-01-29T03:26:14;94841.72;;;7.39;49.64
35676;BME280;21790;42.668;23.298;2023-01-29T03:29:00;94852.38;;;7.25;49.97
35676;BME280;21790;42.668;23.298;2023-01-29T03:31:47;94843.28;;;7.40;49.40
35676;BME280;21790;42.668;23.298;2023-01-29T03:34:29;94847.25;;;7.52;49.03
35676;BME280;21790;42.668;23.298;2023-01-29T03:37:12;94851.53;;;7.53;49.02
35676;BME280;21790;42.668;23.298;2023-01-29T03:39:40;94844.28;;;7.46;48.87
35676;BME280;21790;42.668;23.298;2023-01-29T03:42:12;94848.78;;;7.53;48.69
35676;BME280;21790;42.668;23.298;2023-01-29T03:47:55;94842.72;;;7.45;48.72
35676;BME280;21790;42.668;23.298;2023-01-29T03:50:37;94842.16;;;7.25;49.15
35676;BME280;21790;42.668;23.298;2023-01-29T03:56:07;94849.00;;;7.46;48.61
35676;BME280;21790;42.668;23.298;2023-01-29T04:01:23;94844.25;;;7.34;49.01
35676;BME280;21790;42.668;23.298;2023-01-29T04:04:00;94834.78;;;7.35;49.42
35676;BME280;21790;42.668;23.298;2023-01-29T04:06:33;94843.66;;;7.26;49.75
35676;BME280;21790;42.668;23.298;2023-01-29T04:09:06;94862.66;;;7.21;50.18
35676;BME280;21790;42.668;23.298;2023-01-29T04:11:37;94850.41;;;7.38;49.68
35676;BME280;21790;42.668;23.298;2023-01-29T04:14:06;94851.13;;;7.26;49.87
35676;BME280;21790;42.668;23.298;2023-01-29T04:16:35;94855.44;;;7.27;50.05
35676;BME280;21790;42.668;23.298;2023-01-29T04:19:04;94864.38;;;7.31;49.79
35676;BME280;21790;42.668;23.298;2023-01-29T04:21:30;94856.19;;;7.14;49.65
35676;BME280;21790;42.668;23.298;2023-01-29T04:23:58;94861.53;;;7.05;50.00
35676;BME280;21790;42.668;23.298;2023-01-29T04:26:30;94863.38;;;7.25;49.76
35676;BME280;21790;42.668;23.298;2023-01-29T04:29:19;94865.34;;;7.37;49.93
35676;BME280;21790;42.668;23.298;2023-01-29T04:32:02;94862.19;;;7.38;49.63
35676;BME280;21790;42.668;23.298;2023-01-29T04:39:53;94869.34;;;7.36;49.51
35676;BME280;21790;42.668;23.298;2023-01-29T04:42:36;94871.72;;;7.34;49.71
35676;BME280;21790;42.668;23.298;2023-01-29T04:45:45;94870.38;;;7.26;49.78
35676;BME280;21790;42.668;23.298;2023-01-29T04:48:20;94873.00;;;7.17;50.02
35676;BME280;21790;42.668;23.298;2023-01-29T04:51:31;94868.09;;;7.24;49.88
35676;BME280;21790;42.668;23.298;2023-01-29T04:57:25;94871.50;;;7.28;49.88
35676;BME280;21790;42.668;23.298;2023-01-29T05:00:25;94876.41;;;7.21;49.64
35676;BME280;21790;42.668;23.298;2023-01-29T05:03:29;94877.06;;;9.02;58.82
35676;BME280;21790;42.668;23.298;2023-01-29T05:05:56;94874.28;;;9.02;47.98
35676;BME280;21790;42.668;23.298;2023-01-29T05:08:29;94875.59;;;8.75;46.83
35676;BME280;21790;42.668;23.298;2023-01-29T05:10:57;94872.38;;;8.17;47.27
35676;BME280;21790;42.668;23.298;2023-01-29T05:13:24;94881.41;;;8.18;47.14
35676;BME280;21790;42.668;23.298;2023-01-29T05:18:29;94880.72;;;7.76;48.26
35676;BME280;21790;42.668;23.298;2023-01-29T05:20:55;94887.53;;;7.71;48.38
35676;BME280;21790;42.668;23.298;2023-01-29T05:23:22;94886.84;;;7.54;48.72
35676;BME280;21790;42.668;23.298;2023-01-29T05:25:49;94882.13;;;7.55;48.39
35676;BME280;21790;42.668;23.298;2023-01-29T05:28:15;94887.81;;;7.35;49.23
35676;BME280;21790;42.668;23.298;2023-01-29T05:30:42;94888.81;;;7.54;48.62
35676;BME280;21790;42.668;23.298;2023-01-29T05:33:29;94891.50;;;7.57;48.75
35676;BME280;21790;42.668;23.298;2023-01-29T05:35:57;94888.16;;;7.50;48.91
35676;BME280;21790;42.668;23.298;2023-01-29T05:38:23;94886.81;;;7.42;48.59
35676;BME280;21790;42.668;23.298;2023-01-29T05:40:49;94895.63;;;7.49;48.87
35676;BME280;21790;42.668;23.298;2023-01-29T05:43:23;94889.38;;;7.49;49.21
35676;BME280;21790;42.668;23.298;2023-01-29T05:45:52;94899.28;;;7.59;48.66
35676;BME280;21790;42.668;23.298;2023-01-29T05:48:17;94906.06;;;7.42;48.82
35676;BME280;21790;42.668;23.298;2023-01-29T05:50:43;94897.28;;;7.47;48.74
35676;BME280;21790;42.668;23.298;2023-01-29T05:53:09;94906.97;;;7.51;49.14
35676;BME280;21790;42.668;23.298;2023-01-29T05:55:34;94908.47;;;7.40;49.24
35676;BME280;21790;42.668;23.298;2023-01-29T05:58:00;94906.59;;;7.37;49.03
35676;BME280;21790;42.668;23.298;2023-01-29T06:00:25;94911.00;;;7.34;49.41
35676;BME280;21790;42.668;23.298;2023-01-29T06:02:51;94910.66;;;7.32;49.69
35676;BME280;21790;42.668;23.298;2023-01-29T06:05:16;94909.63;;;7.26;49.70
35676;BME280;21790;42.668;23.298;2023-01-29T06:07:42;94922.38;;;7.20;50.06
35676;BME280;21790;42.668;23.298;2023-01-29T06:10:14;94916.31;;;7.54;49.55
35676;BME280;21790;42.668;23.298;2023-01-29T06:12:41;94926.41;;;7.44;49.50
35676;BME280;21790;42.668;23.298;2023-01-29T06:15:08;94916.84;;;7.36;49.44
35676;BME280;21790;42.668;23.298;2023-01-29T06:17:33;94931.38;;;7.49;49.12
35676;BME280;21790;42.668;23.298;2023-01-29T06:19:59;94926.53;;;7.41;49.65
35676;BME280;21790;42.668;23.298;2023-01-29T06:22:25;94923.38;;;7.26;49.65
35676;BME280;21790;42.668;23.298;2023-01-29T06:24:50;94934.13;;;7.49;50.10
35676;BME280;21790;42.668;23.298;2023-01-29T06:27:16;94935.75;;;7.34;50.15
35676;BME280;21790;42.668;23.298;2023-01-29T06:29:41;94945.25;;;7.58;49.81
35676;BME280;21790;42.668;23.298;2023-01-29T06:32:07;94955.88;;;7.73;49.36
35676;BME280;21790;42.668;23.298;2023-01-29T06:34:32;94951.69;;;7.68;49.23
35676;BME280;21790;42.668;23.298;2023-01-29T06:36:58;94960.06;;;7.77;49.08
35676;BME280;21790;42.668;23.298;2023-01-29T06:39:23;94958.13;;;7.90;48.84
35676;BME280;21790;42.668;23.298;2023-01-29T06:41:49;94960.50;;;7.76;49.01
35676;BME280;21790;42.668;23.298;2023-01-29T06:44:14;94963.34;;;7.72;49.13
35676;BME280;21790;42.668;23.298;2023-01-29T06:46:40;94961.91;;;7.80;48.82
35676;BME280;21790;42.668;23.298;2023-01-29T06:49:05;94962.28;;;7.82;48.70
35676;BME280;21790;42.668;23.298;2023-01-29T06:51:30;94965.75;;;7.70;49.19
35676;BME280;21790;42.668;23.298;2023-01-29T06:53:56;94960.06;;;7.77;48.80
35676;BME280;21790;42.668;23.298;2023-01-29T06:56:23;94966.59;;;7.96;48.77
35676;BME280;21790;42.668;23.298;2023-01-29T06:58:48;94968.03;;;8.13;48.15
35676;BME280;21790;42.668;23.298;2023-01-29T07:01:14;94961.63;;;8.04;48.27
35676;BME280;21790;42.668;23.298;2023-01-29T07:03:39;94974.41;;;7.97;48.80
35676;BME280;21790;42.668;23.298;2023-01-29T07:06:08;94966.28;;;8.19;48.49
35676;BME280;21790;42.668;23.298;2023-01-29T07:08:38;94976.06;;;8.08;48.62
35676;BME280;21790;42.668;23.298;2023-01-29T07:11:04;94975.22;;;8.23;48.03
35676;BME280;21790;42.668;23.298;2023-01-29T07:13:30;94966.94;;;8.11;47.84
35676;BME280;21790;42.668;23.298;2023-01-29T07:16:00;94984.56;;;8.26;48.01
35676;BME280;21790;42.668;23.298;2023-01-29T07:18:26;94987.00;;;8.11;47.97
35676;BME280;21790;42.668;23.298;2023-01-29T07:20:52;94973.44;;;8.04;48.10
35676;BME280;21790;42.668;23.298;2023-01-29T07:23:17;94992.50;;;8.11;48.08
35676;BME280;21790;42.668;23.298;2023-01-29T07:25:43;94995.91;;;8.15;48.24
35676;BME280;21790;42.668;23.298;2023-01-29T07:28:09;94991.53;;;8.30;47.70
35676;BME280;21790;42.668;23.298;2023-01-29T07:30:35;94997.72;;;8.34;47.41
35676;BME280;21790;42.668;23.298;2023-01-29T07:33:02;94993.94;;;8.28;47.87
35676;BME280;21790;42.668;23.298;2023-01-29T07:35:28;94987.31;;;8.13;48.03
35676;BME280;21790;42.668;23.298;2023-01-29T07:37:54;94998.16;;;8.33;47.95
35676;BME280;21790;42.668;23.298;2023-01-29T07:40:19;95000.22;;;8.29;47.63
35676;BME280;21790;42.668;23.298;2023-01-29T07:42:45;94998.47;;;8.35;47.65
35676;BME280;21790;42.668;23.298;2023-01-29T07:45:11;95003.66;;;8.33;47.74
35676;BME280;21790;42.668;23.298;2023-01-29T07:47:37;94999.88;;;8.27;47.95
35676;BME280;21790;42.668;23.298;2023-01-29T07:50:06;95005.72;;;8.29;48.09
35676;BME280;21790;42.668;23.298;2023-01-29T07:52:32;95004.31;;;8.37;48.01
35676;BME280;21790;42.668;23.298;2023-01-29T07:54:58;95006.13;;;8.15;48.64
35676;BME280;21790;42.668;23.298;2023-01-29T07:57:24;95009.56;;;8.19;48.31
35676;BME280;21790;42.668;23.298;2023-01-29T07:59:50;95012.44;;;8.28;48.44
35676;BME280;21790;42.668;23.298;2023-01-29T08:02:15;95012.94;;;8.39;47.66
35676;BME280;21790;42.668;23.298;2023-01-29T08:04:41;95014.44;;;8.40;48.25
35676;BME280;21790;42.668;23.298;2023-01-29T08:07:06;95021.84;;;8.43;47.68
35676;BME280;21790;42.668;23.298;2023-01-29T08:09:34;95025.81;;;8.42;47.99
35676;BME280;21790;42.668;23.298;2023-01-29T08:11:59;95022.06;;;8.36;47.98
35676;BME280;21790;42.668;23.298;2023-01-29T08:14:24;95012.78;;;8.30;47.95
35676;BME280;21790;42.668;23.298;2023-01-29T08:16:50;95019.97;;;8.40;48.10
35676;BME280;21790;42.668;23.298;2023-01-29T08:19:15;95017.09;;;8.31;47.91
35676;BME280;21790;42.668;23.298;2023-01-29T08:21:42;95017.19;;;8.27;48.43
35676;BME280;21790;42.668;23.298;2023-01-29T08:24:07;95021.06;;;8.43;47.88
35676;BME280;21790;42.668;23.298;2023-01-29T08:26:35;95008.75;;;8.34;48.11
35676;BME280;21790;42.668;23.298;2023-01-29T08:29:00;95022.72;;;8.40;47.60
35676;BME280;21790;42.668;23.298;2023-01-29T08:31:26;95029.44;;;8.39;47.30
35676;BME280;21790;42.668;23.298;2023-01-29T08:33:54;95024.38;;;8.63;47.24
35676;BME280;21790;42.668;23.298;2023-01-29T08:36:20;95037.94;;;8.57;47.22
35676;BME280;21790;42.668;23.298;2023-01-29T08:38:46;95035.28;;;8.54;47.06
35676;BME280;21790;42.668;23.298;2023-01-29T08:41:11;95035.19;;;8.57;47.04
35676;BME280;21790;42.668;23.298;2023-01-29T08:43:38;95039.59;;;8.67;46.83
35676;BME280;21790;42.668;23.298;2023-01-29T08:46:06;95039.03;;;8.60;46.59
35676;BME280;21790;42.668;23.298;2023-01-29T08:48:31;95039.47;;;8.58;46.86
35676;BME280;21790;42.668;23.298;2023-01-29T08:50:58;95049.72;;;8.58;46.72
35676;BME280;21790;42.668;23.298;2023-01-29T08:53:24;95040.38;;;8.55;46.72
35676;BME280;21790;42.668;23.298;2023-01-29T08:55:50;95045.75;;;8.59;46.81
35676;BME280;21790;42.668;23.298;2023-01-29T08:58:15;95048.09;;;8.60;46.64
35676;BME280;21790;42.668;23.298;2023-01-29T09:00:41;95054.56;;;8.54;46.65
35676;BME280;21790;42.668;23.298;2023-01-29T09:03:06;95053.69;;;8.57;46.59
35676;BME280;21790;42.668;23.298;2023-01-29T09:05:33;95058.75;;;8.46;46.96
35676;BME280;21790;42.668;23.298;2023-01-29T09:07:59;95058.75;;;8.33;46.79
35676;BME280;21790;42.668;23.298;2023-01-29T09:10:25;95055.28;;;8.29;46.74
35676;BME280;21790;42.668;23.298;2023-01-29T09:12:51;95059.50;;;8.46;46.76
35676;BME280;21790;42.668;23.298;2023-01-29T09:15:17;95055.25;;;8.45;46.85
35676;BME280;21790;42.668;23.298;2023-01-29T09:17:45;95054.91;;;8.43;47.07
35676;BME280;21790;42.668;23.298;2023-01-29T09:20:10;95053.47;;;8.64;46.06
35676;BME280;21790;42.668;23.298;2023-01-29T09:22:36;95053.91;;;8.62;46.54
35676;BME280;21790;42.668;23.298;2023-01-29T09:25:01;95054.13;;;8.43;47.16
35676;BME280;21790;42.668;23.298;2023-01-29T09:27:27;95053.16;;;8.62;46.70
35676;BME280;21790;42.668;23.298;2023-01-29T09:29:53;95048.63;;;8.55;46.55
35676;BME280;21790;42.668;23.298;2023-01-29T09:32:18;95050.16;;;8.69;46.49
35676;BME280;21790;42.668;23.298;2023-01-29T09:34:44;95055.16;;;8.61;46.62
35676;BME280;21790;42.668;23.298;2023-01-29T09:37:09;95053.25;;;8.71;46.45
35676;BME280;21790;42.668;23.298;2023-01-29T09:39:34;95040.13;;;8.62;46.15
35676;BME280;21790;42.668;23.298;2023-01-29T09:45:02;95042.88;;;9.00;45.52
35676;BME280;21790;42.668;23.298;2023-01-29T09:47:32;95034.19;;;8.89;45.50
35676;BME280;21790;42.668;23.298;2023-01-29T09:50:14;95036.41;;;8.56;45.84
35676;BME280;21790;42.668;23.298;2023-01-29T09:55:49;95031.53;;;8.48;46.34
35676;BME280;21790;42.668;23.298;2023-01-29T09:58:26;95030.91;;;8.56;46.20
35676;BME280;21790;42.668;23.298;2023-01-29T10:04:02;95034.19;;;8.64;45.74
35676;BME280;21790;42.668;23.298;2023-01-29T10:06:47;95038.50;;;8.65;46.09
35676;BME280;21790;42.668;23.298;2023-01-29T10:12:31;95022.63;;;8.69;45.78
35676;BME280;21790;42.668;23.298;2023-01-29T10:25:40;95016.75;;;8.29;46.61
35676;BME280;21790;42.668;23.298;2023-01-29T10:28:16;95012.59;;;8.62;46.28
35676;BME280;21790;42.668;23.298;2023-01-29T10:30:50;95020.75;;;8.53;46.22
35676;BME280;21790;42.668;23.298;2023-01-29T10:33:29;95008.75;;;8.60;46.03
35676;BME280;21790;42.668;23.298;2023-01-29T10:36:02;95007.75;;;8.54;46.48
35676;BME280;21790;42.668;23.298;2023-01-29T10:38:39;95004.44;;;8.46;46.50
35676;BME280;21790;42.668;23.298;2023-01-29T10:44:00;95003.13;;;8.51;46.10
35676;BME280;21790;42.668;23.298;2023-01-29T10:47:05;95005.78;;;8.54;46.50
35676;BME280;21790;42.668;23.298;2023-01-29T10:49:40;95002.91;;;8.45;46.53
35676;BME280;21790;42.668;23.298;2023-01-29T10:55:40;95002.66;;;8.52;46.71
35676;BME280;21790;42.668;23.298;2023-01-29T10:57:54;94986.56;;;8.25;46.65
35676;BME280;21790;42.668;23.298;2023-01-29T11:00:27;94988.59;;;8.50;46.48
35676;BME280;21790;42.668;23.298;2023-01-29T11:02:56;95003.66;;;8.46;46.78
35676;BME280;21790;42.668;23.298;2023-01-29T11:05:26;95000.13;;;8.58;46.47
35676;BME280;21790;42.668;23.298;2023-01-29T11:08:04;94995.84;;;8.44;47.08
35676;BME280;21790;42.668;23.298;2023-01-29T11:10:36;94987.81;;;8.50;46.51
35676;BME280;21790;42.668;23.298;2023-01-29T11:13:04;94997.41;;;8.45;46.57
35676;BME280;21790;42.668;23.298;2023-01-29T11:15:32;94972.06;;;8.50;46.35
35676;BME280;21790;42.668;23.298;2023-01-29T11:18:06;94990.13;;;8.76;46.48
35676;BME280;21790;42.668;23.298;2023-01-29T11:20:36;94978.66;;;8.65;46.25
35676;BME280;21790;42.668;23.298;2023-01-29T11:23:02;94978.78;;;8.62;45.95
35676;BME280;21790;42.668;23.298;2023-01-29T11:25:28;94981.19;;;8.72;46.23
35676;BME280;21790;42.668;23.298;2023-01-29T11:28:00;94979.09;;;8.76;46.04
35676;BME280;21790;42.668;23.298;2023-01-29T11:30:30;94977.13;;;8.64;46.65
35676;BME280;21790;42.668;23.298;2023-01-29T11:33:18;94972.47;;;8.87;46.31
35676;BME280;21790;42.668;23.298;2023-01-29T11:35:45;94965.75;;;8.62;46.32
35676;BME280;21790;42.668;23.298;2023-01-29T11:40:43;94948.16;;;8.60;46.19
35676;BME280;21790;42.668;23.298;2023-01-29T11:43:29;94943.03;;;8.84;45.95
35676;BME280;21790;42.668;23.298;2023-01-29T11:46:04;94941.81;;;8.85;46.27
35676;BME280;21790;42.668;23.298;2023-01-29T11:48:45;94938.75;;;8.82;46.01
35676;BME280;21790;42.668;23.298;2023-01-29T11:51:21;94930.72;;;8.63;46.47
35676;BME280;21790;42.668;23.298;2023-01-29T11:53:55;94938.63;;;8.86;45.96
35676;BME280;21790;42.668;23.298;2023-01-29T11:56:34;94945.69;;;8.87;46.04
35676;BME280;21790;42.668;23.298;2023-01-29T11:59:04;94939.19;;;8.68;46.33
35676;BME280;21790;42.668;23.298;2023-01-29T12:01:37;94941.16;;;8.93;46.33
35676;BME280;21790;42.668;23.298;2023-01-29T12:04:26;94940.09;;;9.12;46.05
35676;BME280;21790;42.668;23.298;2023-01-29T12:06:52;94938.91;;;9.01;45.40
35676;BME280;21790;42.668;23.298;2023-01-29T12:09:22;94932.88;;;8.93;46.29
35676;BME280;21790;42.668;23.298;2023-01-29T12:11:48;94931.81;;;8.78;46.06
35676;BME280;21790;42.668;23.298;2023-01-29T12:14:30;94917.56;;;8.92;45.91
35676;BME280;21790;42.668;23.298;2023-01-29T12:17:14;94931.94;;;9.09;45.60
35676;BME280;21790;42.668;23.298;2023-01-29T12:19:53;94925.78;;;9.05;45.84
35676;BME280;21790;42.668;23.298;2023-01-29T12:24:57;94931.72;;;9.16;45.11
35676;BME280;21790;42.668;23.298;2023-01-29T12:30:19;94933.13;;;9.20;45.22
35676;BME280;21790;42.668;23.298;2023-01-29T12:33:11;94942.19;;;9.08;45.38
35676;BME280;21790;42.668;23.298;2023-01-29T12:36:04;94939.06;;;8.85;45.80
35676;BME280;21790;42.668;23.298;2023-01-29T12:38:31;94938.88;;;8.66;45.92
35676;BME280;21790;42.668;23.298;2023-01-29T12:43:47;94942.28;;;8.70;45.56
35676;BME280;21790;42.668;23.298;2023-01-29T12:46:21;94945.72;;;8.62;46.37
35676;BME280;21790;42.668;23.298;2023-01-29T12:48:51;94938.88;;;8.54;46.29
35676;BME280;21790;42.668;23.298;2023-01-29T12:51:21;94939.75;;;8.63;46.11
35676;BME280;21790;42.668;23.298;2023-01-29T12:53:56;94930.63;;;8.66;45.78
35676;BME280;21790;42.668;23.298;2023-01-29T12:56:43;94939.19;;;8.68;46.18
35676;BME280;21790;42.668;23.298;2023-01-29T13:01:58;94932.09;;;8.93;45.48
35676;BME280;21790;42.668;23.298;2023-01-29T13:07:30;94934.88;;;8.80;45.90
35676;BME280;21790;42.668;23.298;2023-01-29T13:10:03;94935.78;;;8.77;45.63
35676;BME280;21790;42.668;23.298;2023-01-29T13:12:30;94923.78;;;8.71;45.69
35676;BME280;21790;42.668;23.298;2023-01-29T13:15:01;94931.69;;;8.81;45.66
35676;BME280;21790;42.668;23.298;2023-01-29T13:20:24;94929.56;;;8.98;44.80
35676;BME280;21790;42.668;23.298;2023-01-29T13:22:54;94937.63;;;8.93;44.89
35676;BME280;21790;42.668;23.298;2023-01-29T13:25:20;94934.16;;;8.67;45.33
35676;BME280;21790;42.668;23.298;2023-01-29T13:27:46;94936.13;;;8.66;45.83
35676;BME280;21790;42.668;23.298;2023-01-29T13:30:32;94936.19;;;8.88;45.37
35676;BME280;21790;42.668;23.298;2023-01-29T13:33:03;94945.97;;;9.02;45.18
35676;BME280;21790;42.668;23.298;2023-01-29T13:35:37;94937.72;;;8.89;45.56
35676;BME280;21790;42.668;23.298;2023-01-29T13:38:05;94946.31;;;8.91;45.17
35676;BME280;21790;42.668;23.298;2023-01-29T13:40:47;94952.25;;;9.02;45.15
35676;BME280;21790;42.668;23.298;2023-01-29T13:43:19;94942.00;;;9.03;45.40
35676;BME280;21790;42.668;23.298;2023-01-29T13:45:46;94953.25;;;8.96;45.23
35676;BME280;21790;42.668;23.298;2023-01-29T13:50:45;94960.78;;;8.82;45.69
35676;BME280;21790;42.668;23.298;2023-01-29T13:53:28;94965.47;;;9.07;45.06
35676;BME280;21790;42.668;23.298;2023-01-29T13:59:05;94964.31;;;8.70;45.82
35676;BME280;21790;42.668;23.298;2023-01-29T14:06:57;94970.50;;;8.74;45.67
35676;BME280;21790;42.668;23.298;2023-01-29T14:09:33;94966.44;;;8.66;45.94
35676;BME280;21790;42.668;23.298;2023-01-29T14:15:00;94971.38;;;8.71;45.88
35676;BME280;21790;42.668;23.298;2023-01-29T14:17:27;94974.03;;;8.50;46.02
35676;BME280;21790;42.668;23.298;2023-01-29T14:20:16;94960.25;;;8.62;45.62
35676;BME280;21790;42.668;23.298;2023-01-29T14:22:43;94972.63;;;8.45;46.25
35676;BME280;21790;42.668;23.298;2023-01-29T14:25:16;94980.19;;;8.41;46.00
35676;BME280;21790;42.668;23.298;2023-01-29T14:27:47;94983.84;;;8.38;46.24
35676;BME280;21790;42.668;23.298;2023-01-29T14:30:16;94987.91;;;8.46;46.10
35676;BME280;21790;42.668;23.298;2023-01-29T14:32:47;94992.88;;;8.51;46.08
35676;BME280;21790;42.668;23.298;2023-01-29T14:37:54;95003.22;;;8.47;46.15
35676;BME280;21790;42.668;23.298;2023-01-29T14:40:24;94996.16;;;8.46;46.42
35676;BME280;21790;42.668;23.298;2023-01-29T14:45:31;94996.38;;;8.52;46.46
35676;BME280;21790;42.668;23.298;2023-01-29T14:47:59;94995.09;;;8.44;46.23
35676;BME280;21790;42.668;23.298;2023-01-29T14:56:03;94997.63;;;8.38;46.95
35676;BME280;21790;42.668;23.298;2023-01-29T14:58:47;94990.75;;;8.30;46.82
35676;BME280;21790;42.668;23.298;2023-01-29T15:01:38;95000.03;;;8.36;46.82
35676;BME280;21790;42.668;23.298;2023-01-29T15:04:21;95001.44;;;8.40;46.44
35676;BME280;21790;42.668;23.298;2023-01-29T15:07:04;94992.97;;;8.35;46.45
35676;BME280;21790;42.668;23.298;2023-01-29T15:09:43;94981.31;;;8.31;46.90
35676;BME280;21790;42.668;23.298;2023-01-29T15:12:35;94991.22;;;8.41;46.57
35676;BME280;21790;42.668;23.298;2023-01-29T15:26:03;94974.66;;;8.16;47.27